Time;durP1;ratioP1;P1;durP2;ratioP2;P2;SDS_P1;SDS_P2;PMS_P1;PMS_P2;Temp;Humidity;BMP_temperature;BMP_pressure;BME280_temperature;BME280_humidity;BME280_pressure;Samples;Min_cycle;Max_cycle;Signal;HPM_P1;HPM_P2
2022/08/24 00:03:38;;;;;;;0.00;0.00;;;;;;;;;;12280232;19;20075;-66
2022/08/24 00:07:39;;;;;;;0.00;0.00;;;;;;;;;;12277224;19;20167;-66
2022/08/24 00:11:39;;;;;;;0.00;0.00;;;;;;;;;;12282269;19;20020;-67
2022/08/24 00:15:40;;;;;;;0.00;0.00;;;;;;;;;;12279524;19;19998;-66
2022/08/24 00:19:41;;;;;;;0.00;0.00;;;;;;;;;;12276331;19;20210;-66
2022/08/24 00:23:41;;;;;;;0.00;0.00;;;;;;;;;;12276737;19;19994;-66
2022/08/24 00:27:42;;;;;;;0.00;0.00;;;;;;;;;;12277165;19;20007;-66
2022/08/24 00:31:42;;;;;;;0.00;0.00;;;;;;;;;;12280343;19;20523;-66
2022/08/24 00:35:43;;;;;;;0.00;0.00;;;;;;;;;;12277507;19;20025;-66
2022/08/24 00:39:43;;;;;;;0.00;0.00;;;;;;;;;;12273280;19;20017;-66
2022/08/24 00:44:00;;;;;;;0.00;0.00;;;;;;;;;;12273247;19;19994;-66
2022/08/24 00:48:02;;;;;;;0.00;0.00;;;;;;;;;;12273555;19;19999;-67
2022/08/24 00:52:09;;;;;;;0.00;0.00;;;;;;;;;;12278793;19;20050;-67
2022/08/24 00:56:16;;;;;;;0.00;0.00;;;;;;;;;;12275851;19;20143;-66
2022/08/24 01:00:18;;;;;;;0.00;0.00;;;;;;;;;;12272666;19;20010;-66
2022/08/24 01:04:27;;;;;;;0.00;0.00;;;;;;;;;;12274436;19;19994;-65
2022/08/24 01:08:28;;;;;;;0.00;0.00;;;;;;;;;;12273661;19;19983;-66
2022/08/24 01:12:30;;;;;;;0.00;0.00;;;;;;;;;;12279807;19;20015;-66
2022/08/24 01:20:55;;;;;;;0.00;0.00;;;;;;;;;;12272188;19;20005;-66
2022/08/24 01:24:56;;;;;;;0.00;0.00;;;;;;;;;;12271573;19;20003;-66
2022/08/24 01:28:59;;;;;;;0.00;0.00;;;;;;;;;;12269937;19;19987;-67
2022/08/24 01:33:02;;;;;;;0.00;0.00;;;;;;;;;;12277404;19;20001;-66
2022/08/24 01:37:02;;;;;;;0.00;0.00;;;;;;;;;;12275972;19;20342;-66
2022/08/24 01:41:03;;;;;;;0.00;0.00;;;;;;;;;;12269816;19;20231;-66
2022/08/24 01:45:03;;;;;;;0.00;0.00;;;;;;;;;;12270383;19;20030;-66
2022/08/24 01:49:04;;;;;;;0.00;0.00;;;;;;;;;;12271243;19;20055;-67
2022/08/24 01:53:04;;;;;;;0.00;0.00;;;;;;;;;;12274036;19;20061;-66
2022/08/24 01:57:05;;;;;;;0.00;0.00;;;;;;;;;;12273502;19;20007;-66
2022/08/24 02:01:05;;;;;;;0.00;0.00;;;;;;;;;;12268640;19;20002;-66
2022/08/24 02:05:06;;;;;;;0.00;0.00;;;;;;;;;;12269075;19;19983;-66
2022/08/24 02:09:06;;;;;;;0.00;0.00;;;;;;;;;;12270082;19;20390;-66
2022/08/24 02:13:07;;;;;;;0.00;0.00;;;;;;;;;;12277907;19;19999;-66
2022/08/24 02:17:07;;;;;;;0.00;0.00;;;;;;;;;;12269297;19;19998;-66
2022/08/24 02:21:08;;;;;;;0.00;0.00;;;;;;;;;;12271746;19;20007;-66
2022/08/24 02:25:09;;;;;;;0.00;0.00;;;;;;;;;;12270163;19;20117;-66
2022/08/24 02:29:09;;;;;;;0.00;0.00;;;;;;;;;;12272277;19;20391;-66
2022/08/24 02:33:10;;;;;;;0.00;0.00;;;;;;;;;;12268971;19;20386;-66
2022/08/24 02:37:10;;;;;;;0.00;0.00;;;;;;;;;;12271067;19;20294;-66
2022/08/24 02:41:11;;;;;;;0.00;0.00;;;;;;;;;;12269841;19;19989;-66
2022/08/24 02:45:11;;;;;;;0.00;0.00;;;;;;;;;;12281896;19;19999;-66
2022/08/24 02:49:11;;;;;;;0.00;0.00;;;;;;;;;;12281732;19;19979;-67
2022/08/24 02:53:13;;;;;;;0.00;0.00;;;;;;;;;;12278405;19;20497;-66
2022/08/24 02:57:13;;;;;;;0.00;0.00;;;;;;;;;;12287073;19;20067;-65
2022/08/24 03:01:15;;;;;;;0.00;0.00;;;;;;;;;;12277219;19;20251;-66
2022/08/24 03:05:16;;;;;;;0.00;0.00;;;;;;;;;;12283360;19;20191;-66
2022/08/24 03:09:16;;;;;;;0.00;0.00;;;;;;;;;;12280913;19;19986;-66
2022/08/24 03:13:17;;;;;;;0.00;0.00;;;;;;;;;;12281368;19;19995;-66
2022/08/24 03:17:18;;;;;;;0.00;0.00;;;;;;;;;;12279704;19;19986;-66
2022/08/24 03:21:18;;;;;;;0.00;0.00;;;;;;;;;;12273836;19;19991;-66
2022/08/24 03:25:19;;;;;;;0.00;0.00;;;;;;;;;;12278796;19;19990;-66
2022/08/24 03:29:20;;;;;;;0.00;0.00;;;;;;;;;;12277994;19;19989;-66
2022/08/24 03:33:20;;;;;;;0.00;0.00;;;;;;;;;;12279455;19;19998;-66
2022/08/24 03:37:20;;;;;;;0.00;0.00;;;;;;;;;;12281860;19;19987;-66
2022/08/24 03:41:21;;;;;;;0.00;0.00;;;;;;;;;;12273594;19;20002;-65
2022/08/24 03:45:22;;;;;;;0.00;0.00;;;;;;;;;;12274442;19;20017;-67
2022/08/24 03:49:22;;;;;;;0.00;0.00;;;;;;;;;;12282877;19;20003;-67
2022/08/24 03:53:22;;;;;;;0.00;0.00;;;;;;;;;;12272843;19;20003;-68
2022/08/24 03:57:23;;;;;;;0.00;0.00;;;;;;;;;;12276242;19;20405;-68
2022/08/24 04:01:24;;;;;;;0.00;0.00;;;;;;;;;;12275955;19;20046;-67
2022/08/24 04:05:24;;;;;;;0.00;0.00;;;;;;;;;;12277862;19;19999;-66
2022/08/24 04:09:24;;;;;;;0.00;0.00;;;;;;;;;;12277427;19;20006;-66
2022/08/24 04:13:25;;;;;;;0.00;0.00;;;;;;;;;;12276830;19;19999;-66
2022/08/24 04:17:25;;;;;;;0.00;0.00;;;;;;;;;;12281971;19;20278;-66
2022/08/24 04:21:27;;;;;;;0.00;0.00;;;;;;;;;;12276729;19;20215;-65
2022/08/24 04:25:27;;;;;;;0.00;0.00;;;;;;;;;;12277875;19;20006;-65
2022/08/24 04:29:27;;;;;;;0.00;0.00;;;;;;;;;;12275032;19;20033;-65
2022/08/24 04:33:28;;;;;;;0.00;0.00;;;;;;;;;;12275292;19;20009;-66
2022/08/24 04:37:28;;;;;;;0.00;0.00;;;;;;;;;;12281445;19;20463;-65
2022/08/24 04:41:28;;;;;;;0.00;0.00;;;;;;;;;;12274105;19;20125;-66
2022/08/24 04:45:29;;;;;;;0.00;0.00;;;;;;;;;;12276148;19;20006;-66
2022/08/24 04:49:29;;;;;;;0.00;0.00;;;;;;;;;;12274792;19;20545;-65
2022/08/24 04:53:30;;;;;;;0.00;0.00;;;;;;;;;;12278996;19;19994;-66
2022/08/24 04:57:31;;;;;;;0.00;0.00;;;;;;;;;;12279180;19;19999;-65
2022/08/24 05:01:32;;;;;;;0.00;0.00;;;;;;;;;;12273718;19;20033;-66
2022/08/24 05:05:33;;;;;;;0.00;0.00;;;;;;;;;;12270976;19;20030;-65
2022/08/24 05:09:33;;;;;;;0.00;0.00;;;;;;;;;;12273333;19;19983;-66
2022/08/24 05:13:34;;;;;;;0.00;0.00;;;;;;;;;;12277097;19;19995;-66
2022/08/24 05:17:34;;;;;;;0.00;0.00;;;;;;;;;;12276155;19;20003;-66
2022/08/24 05:21:35;;;;;;;0.00;0.00;;;;;;;;;;12271689;19;20007;-65
2022/08/24 05:25:36;;;;;;;0.00;0.00;;;;;;;;;;12275006;19;20002;-67
2022/08/24 05:29:36;;;;;;;0.00;0.00;;;;;;;;;;12282567;19;20402;-65
2022/08/24 05:33:36;;;;;;;0.00;0.00;;;;;;;;;;12277757;19;19998;-65
2022/08/24 05:37:38;;;;;;;0.00;0.00;;;;;;;;;;12273717;19;20445;-66
2022/08/24 05:41:40;;;;;;;0.00;0.00;;;;;;;;;;12275558;19;20003;-66
2022/08/24 05:45:42;;;;;;;0.00;0.00;;;;;;;;;;12276462;19;20072;-65
2022/08/24 05:49:42;;;;;;;0.00;0.00;;;;;;;;;;12276065;19;20001;-66
2022/08/24 05:53:42;;;;;;;0.00;0.00;;;;;;;;;;12271105;19;20481;-65
2022/08/24 05:57:44;;;;;;;0.00;0.00;;;;;;;;;;12272593;19;20002;-66
2022/08/24 06:01:44;;;;;;;0.00;0.00;;;;;;;;;;12275310;19;20011;-71
2022/08/24 06:05:47;;;;;;;0.00;0.00;;;;;;;;;;12276156;19;19995;-66
2022/08/24 06:09:47;;;;;;;0.00;0.00;;;;;;;;;;12273872;19;20006;-71
2022/08/24 06:13:48;;;;;;;0.00;0.00;;;;;;;;;;12273525;19;20003;-68
2022/08/24 06:17:49;;;;;;;0.00;0.00;;;;;;;;;;12274743;19;19999;-67
2022/08/24 06:21:51;;;;;;;0.00;0.00;;;;;;;;;;12274699;19;20135;-68
2022/08/24 06:30:10;;;;;;;0.00;0.00;;;;;;;;;;12275128;19;20049;-68
2022/08/24 06:34:11;;;;;;;0.00;0.00;;;;;;;;;;12275318;19;20015;-71
2022/08/24 06:38:12;;;;;;;0.00;0.00;;;;;;;;;;12271397;19;20018;-69
2022/08/24 06:42:12;;;;;;;0.00;0.00;;;;;;;;;;12277097;19;19998;-65
2022/08/24 06:46:12;;;;;;;0.00;0.00;;;;;;;;;;12274518;19;20002;-70
2022/08/24 06:50:13;;;;;;;0.00;0.00;;;;;;;;;;12269570;19;20525;-70
2022/08/24 06:54:13;;;;;;;0.00;0.00;;;;;;;;;;12266151;19;19999;-66
2022/08/24 06:58:13;;;;;;;0.00;0.00;;;;;;;;;;12267262;19;20701;-67
2022/08/24 07:02:17;;;;;;;0.00;0.00;;;;;;;;;;12274399;19;20938;-71
2022/08/24 07:06:18;;;;;;;0.00;0.00;;;;;;;;;;12272178;19;20442;-66
2022/08/24 07:10:18;;;;;;;0.00;0.00;;;;;;;;;;12278028;19;20010;-67
2022/08/24 07:14:19;;;;;;;0.00;0.00;;;;;;;;;;12269261;19;19991;-66
2022/08/24 07:18:19;;;;;;;0.00;0.00;;;;;;;;;;12276000;19;20013;-66
2022/08/24 07:22:20;;;;;;;0.00;0.00;;;;;;;;;;12274793;19;20230;-66
2022/08/24 07:26:21;;;;;;;0.00;0.00;;;;;;;;;;12277387;19;20031;-67
2022/08/24 07:30:22;;;;;;;0.00;0.00;;;;;;;;;;12281219;19;19991;-67
2022/08/24 07:34:22;;;;;;;0.00;0.00;;;;;;;;;;12283078;19;19990;-67
2022/08/24 07:38:23;;;;;;;0.00;0.00;;;;;;;;;;12286648;19;20007;-68
2022/08/24 07:42:23;;;;;;;0.00;0.00;;;;;;;;;;12282509;19;20011;-72
2022/08/24 07:46:24;;;;;;;0.00;0.00;;;;;;;;;;12281525;19;20013;-68
2022/08/24 07:50:24;;;;;;;0.00;0.00;;;;;;;;;;12281425;19;20610;-68
2022/08/24 07:54:26;;;;;;;0.00;0.00;;;;;;;;;;12276362;19;20039;-68
2022/08/24 07:58:26;;;;;;;0.00;0.00;;;;;;;;;;12285247;19;20006;-67
2022/08/24 08:02:27;;;;;;;0.00;0.00;;;;;;;;;;12286030;19;19998;-68
2022/08/24 08:06:27;;;;;;;0.00;0.00;;;;;;;;;;12283730;19;20007;-68
2022/08/24 08:10:29;;;;;;;0.00;0.00;;;;;;;;;;12281535;19;19983;-69
2022/08/24 08:14:30;;;;;;;0.00;0.00;;;;;;;;;;12278484;19;20378;-69
2022/08/24 08:18:30;;;;;;;0.00;0.00;;;;;;;;;;12282070;19;20009;-69
2022/08/24 08:26:50;;;;;;;0.00;0.00;;;;;;;;;;12279632;19;20123;-66
2022/08/24 08:30:52;;;;;;;0.00;0.00;;;;;;;;;;12278084;19;20104;-67
2022/08/24 08:34:52;;;;;;;0.00;0.00;;;;;;;;;;12285743;19;20013;-68
2022/08/24 08:38:53;;;;;;;0.00;0.00;;;;;;;;;;12286491;19;20111;-70
2022/08/24 08:43:20;;;;;;;0.00;0.00;;;;;;;;;;12284435;19;20401;-71
2022/08/24 08:47:32;;;;;;;0.00;0.00;;;;;;;;;;12277729;19;20519;-68
2022/08/24 08:51:32;;;;;;;0.00;0.00;;;;;;;;;;12279832;19;20090;-68
2022/08/24 08:55:33;;;;;;;0.00;0.00;;;;;;;;;;12275683;19;19987;-70
2022/08/24 08:59:45;;;;;;;0.00;0.00;;;;;;;;;;12276974;19;20082;-68
2022/08/24 09:03:48;;;;;;;0.00;0.00;;;;;;;;;;12280015;19;20003;-70
2022/08/24 09:07:57;;;;;;;0.00;0.00;;;;;;;;;;12277550;19;20010;-68
2022/08/24 09:12:15;;;;;;;0.00;0.00;;;;;;;;;;12281273;19;20085;-68
2022/08/24 09:16:16;;;;;;;0.00;0.00;;;;;;;;;;12279352;19;20206;-68
2022/08/24 09:20:35;;;;;;;0.00;0.00;;;;;;;;;;12271914;19;20230;-68
2022/08/24 09:24:44;;;;;;;0.00;0.00;;;;;;;;;;12281792;19;20006;-67
2022/08/24 09:28:52;;;;;;;0.00;0.00;;;;;;;;;;12281310;19;20002;-66
2022/08/24 09:33:11;;;;;;;0.00;0.00;;;;;;;;;;12282653;19;20104;-68
2022/08/24 09:37:15;;;;;;;0.00;0.00;;;;;;;;;;12281370;19;20006;-66
2022/08/24 09:41:18;;;;;;;0.00;0.00;;;;;;;;;;12276008;19;20127;-68
2022/08/24 09:45:18;;;;;;;0.00;0.00;;;;;;;;;;12278373;19;20111;-71
2022/08/24 09:49:34;;;;;;;0.00;0.00;;;;;;;;;;12281832;19;20138;-70
2022/08/24 09:53:53;;;;;;;0.00;0.00;;;;;;;;;;12273137;19;20004;-68
2022/08/24 09:58:12;;;;;;;0.00;0.00;;;;;;;;;;12278430;19;20006;-68
2022/08/24 10:02:28;;;;;;;0.00;0.00;;;;;;;;;;12277142;19;20099;-67
2022/08/24 10:06:35;;;;;;;0.00;0.00;;;;;;;;;;12279770;19;20039;-66
2022/08/24 10:10:45;;;;;;;0.00;0.00;;;;;;;;;;12276863;19;19987;-66
2022/08/24 10:14:51;;;;;;;0.00;0.00;;;;;;;;;;12281589;19;20014;-71
2022/08/24 10:19:15;;;;;;;0.00;0.00;;;;;;;;;;12273470;19;19995;-70
2022/08/24 10:23:35;;;;;;;0.00;0.00;;;;;;;;;;12280375;19;20002;-66
2022/08/24 10:27:40;;;;;;;0.00;0.00;;;;;;;;;;12269569;19;19987;-67
2022/08/24 10:31:55;;;;;;;0.00;0.00;;;;;;;;;;12266479;19;19995;-70
2022/08/24 10:36:14;;;;;;;0.00;0.00;;;;;;;;;;12270284;19;20070;-66
2022/08/24 10:40:36;;;;;;;0.00;0.00;;;;;;;;;;12270605;19;19982;-67
2022/08/24 10:44:43;;;;;;;0.00;0.00;;;;;;;;;;12270229;19;20054;-70
2022/08/24 10:48:43;;;;;;;0.00;0.00;;;;;;;;;;12271342;19;19995;-67
2022/08/24 10:52:56;;;;;;;0.00;0.00;;;;;;;;;;12271165;19;20059;-67
2022/08/24 10:57:07;;;;;;;0.00;0.00;;;;;;;;;;12268661;19;19994;-67
2022/08/24 11:01:27;;;;;;;0.00;0.00;;;;;;;;;;12277112;19;20006;-66
2022/08/24 11:05:28;;;;;;;0.00;0.00;;;;;;;;;;12286768;19;20460;-67
2022/08/24 11:09:50;;;;;;;0.00;0.00;;;;;;;;;;12288008;19;20010;-70
2022/08/24 11:13:52;;;;;;;0.00;0.00;;;;;;;;;;12283929;19;20301;-67
2022/08/24 11:17:59;;;;;;;0.00;0.00;;;;;;;;;;12283406;19;19983;-67
2022/08/24 11:22:04;;;;;;;0.00;0.00;;;;;;;;;;12284073;19;20019;-67
2022/08/24 11:26:06;;;;;;;0.00;0.00;;;;;;;;;;12282044;19;19991;-68
2022/08/24 11:30:26;;;;;;;0.00;0.00;;;;;;;;;;12285372;19;20258;-67
2022/08/24 11:34:32;;;;;;;0.00;0.00;;;;;;;;;;12283463;19;20261;-68
2022/08/24 11:38:35;;;;;;;0.00;0.00;;;;;;;;;;12283932;19;19995;-67
2022/08/24 11:42:42;;;;;;;0.00;0.00;;;;;;;;;;12281176;19;19991;-70
2022/08/24 11:46:45;;;;;;;0.00;0.00;;;;;;;;;;12281532;19;20003;-65
2022/08/24 11:51:01;;;;;;;0.00;0.00;;;;;;;;;;12287106;19;20013;-67
2022/08/24 11:55:04;;;;;;;0.00;0.00;;;;;;;;;;12283836;19;20028;-66
2022/08/24 11:59:11;;;;;;;0.00;0.00;;;;;;;;;;12289316;19;20014;-66
2022/08/24 12:03:11;;;;;;;0.00;0.00;;;;;;;;;;12285134;19;20011;-65
2022/08/24 12:07:18;;;;;;;0.00;0.00;;;;;;;;;;12284184;19;20002;-65
2022/08/24 12:11:34;;;;;;;0.00;0.00;;;;;;;;;;12285202;19;20129;-66
2022/08/24 12:15:35;;;;;;;0.00;0.00;;;;;;;;;;12285906;19;20038;-70
2022/08/24 12:19:39;;;;;;;0.00;0.00;;;;;;;;;;12275178;19;20042;-67
2022/08/24 12:23:43;;;;;;;0.00;0.00;;;;;;;;;;12279672;19;20390;-67
2022/08/24 12:27:43;;;;;;;0.00;0.00;;;;;;;;;;12285158;19;20004;-67
2022/08/24 12:31:56;;;;;;;0.00;0.00;;;;;;;;;;12285512;19;20043;-70
2022/08/24 12:36:00;;;;;;;0.00;0.00;;;;;;;;;;12283608;19;19990;-70
2022/08/24 12:40:00;;;;;;;0.00;0.00;;;;;;;;;;12282624;19;20034;-67
2022/08/24 12:44:11;;;;;;;0.00;0.00;;;;;;;;;;12284967;19;20162;-67
2022/08/24 12:48:12;;;;;;;0.00;0.00;;;;;;;;;;12284883;19;20191;-66
2022/08/24 12:52:18;;;;;;;0.00;0.00;;;;;;;;;;12282496;19;20215;-65
2022/08/24 12:56:21;;;;;;;0.00;0.00;;;;;;;;;;12276925;19;20009;-65
2022/08/24 13:00:32;;;;;;;0.00;0.00;;;;;;;;;;12276110;19;19998;-66
2022/08/24 13:04:42;;;;;;;0.00;0.00;;;;;;;;;;12285574;19;20006;-66
2022/08/24 13:08:43;;;;;;;0.00;0.00;;;;;;;;;;12280955;19;20003;-66
2022/08/24 13:12:43;;;;;;;0.00;0.00;;;;;;;;;;12282205;19;20026;-66
2022/08/24 13:16:50;;;;;;;0.00;0.00;;;;;;;;;;12282610;19;19998;-67
2022/08/24 13:20:50;;;;;;;0.00;0.00;;;;;;;;;;12278487;19;20557;-67
2022/08/24 13:25:01;;;;;;;0.00;0.00;;;;;;;;;;12277176;19;20051;-67
2022/08/24 13:29:01;;;;;;;0.00;0.00;;;;;;;;;;12278473;19;20008;-67
2022/08/24 13:33:08;;;;;;;0.00;0.00;;;;;;;;;;12283339;19;19999;-59
2022/08/24 13:37:21;;;;;;;0.00;0.00;;;;;;;;;;12277033;19;20219;-62
2022/08/24 13:41:27;;;;;;;0.00;0.00;;;;;;;;;;12278892;19;20046;-59
2022/08/24 13:45:45;;;;;;;0.00;0.00;;;;;;;;;;12271098;19;20011;-61
2022/08/24 13:49:50;;;;;;;0.00;0.00;;;;;;;;;;12271273;19;20038;-63
2022/08/24 13:54:18;;;;;;;0.00;0.00;;;;;;;;;;12276257;19;20080;-64
2022/08/24 13:58:21;;;;;;;0.00;0.00;;;;;;;;;;12274016;19;20003;-69
2022/08/24 14:02:40;;;;;;;0.00;0.00;;;;;;;;;;12274498;19;19995;-66
2022/08/24 14:06:50;;;;;;;0.00;0.00;;;;;;;;;;12269472;19;20131;-67
2022/08/24 14:10:58;;;;;;;0.00;0.00;;;;;;;;;;12271673;19;20011;-66
2022/08/24 14:15:05;;;;;;;0.00;0.00;;;;;;;;;;12273638;19;19995;-66
2022/08/24 14:19:24;;;;;;;0.00;0.00;;;;;;;;;;12269725;19;20262;-62
2022/08/24 14:23:33;;;;;;;0.00;0.00;;;;;;;;;;12268887;19;20207;-66
2022/08/24 14:27:34;;;;;;;0.00;0.00;;;;;;;;;;12268190;19;20002;-66
2022/08/24 14:31:34;;;;;;;0.00;0.00;;;;;;;;;;12272972;19;20003;-61
2022/08/24 14:35:41;;;;;;;0.00;0.00;;;;;;;;;;12276087;19;19999;-61
2022/08/24 14:39:50;;;;;;;0.00;0.00;;;;;;;;;;12278432;19;20510;-61
2022/08/24 14:44:05;;;;;;;0.00;0.00;;;;;;;;;;12284360;19;20016;-60
2022/08/24 14:48:10;;;;;;;0.00;0.00;;;;;;;;;;12280378;19;20005;-62
2022/08/24 14:52:29;;;;;;;0.00;0.00;;;;;;;;;;12283321;19;19998;-59
2022/08/24 14:56:36;;;;;;;0.00;0.00;;;;;;;;;;12278861;19;20001;-65
2022/08/24 15:00:48;;;;;;;0.00;0.00;;;;;;;;;;12280498;19;20005;-61
2022/08/24 15:05:02;;;;;;;0.00;0.00;;;;;;;;;;12281032;19;19995;-60
2022/08/24 15:09:10;;;;;;;0.00;0.00;;;;;;;;;;12281238;19;20006;-62
2022/08/24 15:13:20;;;;;;;0.00;0.00;;;;;;;;;;12279730;19;20002;-66
2022/08/24 15:17:22;;;;;;;0.00;0.00;;;;;;;;;;12281755;19;20010;-65
2022/08/24 15:21:22;;;;;;;0.00;0.00;;;;;;;;;;12276379;19;20015;-64
2022/08/24 15:25:32;;;;;;;0.00;0.00;;;;;;;;;;12285643;19;20007;-60
2022/08/24 15:29:33;;;;;;;0.00;0.00;;;;;;;;;;12283917;19;20018;-64
2022/08/24 15:33:35;;;;;;;0.00;0.00;;;;;;;;;;12283075;19;20242;-66
2022/08/24 15:37:37;;;;;;;0.00;0.00;;;;;;;;;;12284024;19;19997;-69
2022/08/24 15:41:38;;;;;;;0.00;0.00;;;;;;;;;;12274958;19;20014;-63
2022/08/24 15:45:45;;;;;;;0.00;0.00;;;;;;;;;;12278158;19;20126;-66
2022/08/24 15:49:48;;;;;;;0.00;0.00;;;;;;;;;;12282051;19;20007;-65
2022/08/24 15:53:49;;;;;;;0.00;0.00;;;;;;;;;;12280261;19;20110;-64
2022/08/24 15:57:49;;;;;;;0.00;0.00;;;;;;;;;;12284095;19;20138;-63
2022/08/24 16:02:25;;;;;;;0.00;0.00;;;;;;;;;;12279537;19;20461;-65
2022/08/24 16:06:35;;;;;;;0.00;0.00;;;;;;;;;;12279340;19;20121;-64
2022/08/24 16:10:40;;;;;;;0.00;0.00;;;;;;;;;;12284515;19;19995;-67
2022/08/24 16:14:48;;;;;;;0.00;0.00;;;;;;;;;;12280380;19;20007;-66
2022/08/24 16:18:58;;;;;;;0.00;0.00;;;;;;;;;;12283347;19;20002;-62
2022/08/24 16:23:01;;;;;;;0.00;0.00;;;;;;;;;;12281032;19;19999;-62
2022/08/24 16:27:09;;;;;;;0.00;0.00;;;;;;;;;;12278779;19;20001;-62
2022/08/24 16:31:09;;;;;;;0.00;0.00;;;;;;;;;;12273757;19;19994;-63
2022/08/24 16:35:10;;;;;;;0.00;0.00;;;;;;;;;;12288239;19;20009;-62
2022/08/24 16:39:10;;;;;;;0.00;0.00;;;;;;;;;;12291401;19;19999;-67
2022/08/24 16:43:11;;;;;;;0.00;0.00;;;;;;;;;;12279209;19;19989;-66
2022/08/24 16:47:12;;;;;;;0.00;0.00;;;;;;;;;;12277935;19;20166;-61
2022/08/24 16:51:12;;;;;;;0.00;0.00;;;;;;;;;;12286900;19;20150;-65
2022/08/24 16:55:12;;;;;;;0.00;0.00;;;;;;;;;;12273578;19;20017;-66
2022/08/24 16:59:16;;;;;;;0.00;0.00;;;;;;;;;;12282184;19;20005;-66
2022/08/24 17:03:16;;;;;;;0.00;0.00;;;;;;;;;;12281959;19;20002;-61
2022/08/24 17:07:20;;;;;;;0.00;0.00;;;;;;;;;;12278561;19;20017;-66
2022/08/24 17:11:20;;;;;;;0.00;0.00;;;;;;;;;;12270604;19;19998;-61
2022/08/24 17:15:21;;;;;;;0.00;0.00;;;;;;;;;;12274594;19;20003;-62
2022/08/24 17:19:21;;;;;;;0.00;0.00;;;;;;;;;;12274353;19;20600;-65
2022/08/24 17:23:21;;;;;;;0.00;0.00;;;;;;;;;;12274790;19;20458;-65
2022/08/24 17:27:24;;;;;;;0.00;0.00;;;;;;;;;;12271899;19;19995;-61
2022/08/24 17:31:25;;;;;;;0.00;0.00;;;;;;;;;;12274551;19;20003;-64
2022/08/24 17:35:26;;;;;;;0.00;0.00;;;;;;;;;;12276419;19;19998;-60
2022/08/24 17:39:27;;;;;;;0.00;0.00;;;;;;;;;;12273634;19;20006;-65
2022/08/24 17:43:27;;;;;;;0.00;0.00;;;;;;;;;;12271200;19;20003;-60
2022/08/24 17:47:27;;;;;;;0.00;0.00;;;;;;;;;;12273598;19;19999;-64
2022/08/24 17:51:28;;;;;;;0.00;0.00;;;;;;;;;;12274733;19;20003;-64
2022/08/24 17:55:28;;;;;;;0.00;0.00;;;;;;;;;;12274158;19;20457;-68
2022/08/24 17:59:30;;;;;;;0.00;0.00;;;;;;;;;;12273310;19;20022;-65
2022/08/24 18:03:31;;;;;;;0.00;0.00;;;;;;;;;;12270411;19;20002;-62
2022/08/24 18:07:31;;;;;;;0.00;0.00;;;;;;;;;;12277263;19;20014;-68
2022/08/24 18:11:32;;;;;;;0.00;0.00;;;;;;;;;;12273073;19;19999;-63
2022/08/24 18:15:33;;;;;;;0.00;0.00;;;;;;;;;;12274783;19;20231;-65
2022/08/24 18:19:35;;;;;;;0.00;0.00;;;;;;;;;;12267364;19;20026;-68
2022/08/24 18:23:38;;;;;;;0.00;0.00;;;;;;;;;;12267255;19;20226;-62
2022/08/24 18:27:39;;;;;;;0.00;0.00;;;;;;;;;;12269071;19;20559;-63
2022/08/24 18:31:40;;;;;;;0.00;0.00;;;;;;;;;;12272203;19;20007;-66
2022/08/24 18:35:40;;;;;;;0.00;0.00;;;;;;;;;;12269623;19;20215;-63
2022/08/24 18:39:40;;;;;;;0.00;0.00;;;;;;;;;;12267632;19;20084;-69
2022/08/24 18:43:41;;;;;;;0.00;0.00;;;;;;;;;;12272804;19;20524;-70
2022/08/24 18:47:41;;;;;;;0.00;0.00;;;;;;;;;;12273455;19;20469;-63
2022/08/24 18:51:42;;;;;;;0.00;0.00;;;;;;;;;;12272726;19;20515;-65
2022/08/24 18:55:44;;;;;;;0.00;0.00;;;;;;;;;;12271358;19;20740;-69
2022/08/24 18:59:45;;;;;;;0.00;0.00;;;;;;;;;;12267448;19;20009;-63
2022/08/24 19:03:45;;;;;;;0.00;0.00;;;;;;;;;;12268354;19;20138;-69
2022/08/24 19:07:47;;;;;;;0.00;0.00;;;;;;;;;;12273440;19;19995;-68
2022/08/24 19:11:48;;;;;;;0.00;0.00;;;;;;;;;;12272483;19;20010;-64
2022/08/24 19:15:49;;;;;;;0.00;0.00;;;;;;;;;;12269870;19;19995;-64
2022/08/24 19:19:49;;;;;;;0.00;0.00;;;;;;;;;;12264267;19;20007;-67
2022/08/24 19:23:49;;;;;;;0.00;0.00;;;;;;;;;;12274431;19;19983;-68
2022/08/24 19:27:50;;;;;;;0.00;0.00;;;;;;;;;;12281797;19;20433;-71
2022/08/24 19:31:51;;;;;;;0.00;0.00;;;;;;;;;;12281421;19;19991;-62
2022/08/24 19:35:52;;;;;;;0.00;0.00;;;;;;;;;;12287029;19;20051;-67
2022/08/24 19:39:52;;;;;;;0.00;0.00;;;;;;;;;;12284793;19;20207;-62
2022/08/24 19:48:13;;;;;;;0.00;0.00;;;;;;;;;;12282319;19;19997;-71
2022/08/24 19:52:13;;;;;;;0.00;0.00;;;;;;;;;;12281552;19;19990;-66
2022/08/24 19:56:13;;;;;;;0.00;0.00;;;;;;;;;;12286877;19;20003;-69
2022/08/24 20:00:14;;;;;;;0.00;0.00;;;;;;;;;;12282237;19;20006;-69
2022/08/24 20:04:14;;;;;;;0.00;0.00;;;;;;;;;;12286421;19;20136;-69
2022/08/24 20:08:15;;;;;;;0.00;0.00;;;;;;;;;;12279005;19;20262;-70
2022/08/24 20:12:15;;;;;;;0.00;0.00;;;;;;;;;;12283948;19;19994;-69
2022/08/24 20:16:18;;;;;;;0.00;0.00;;;;;;;;;;12276530;19;20006;-68
2022/08/24 20:20:19;;;;;;;0.00;0.00;;;;;;;;;;12278232;19;20009;-66
2022/08/24 20:24:19;;;;;;;0.00;0.00;;;;;;;;;;12279815;19;20038;-62
2022/08/24 20:28:20;;;;;;;0.00;0.00;;;;;;;;;;12286037;19;20010;-69
2022/08/24 20:32:21;;;;;;;0.00;0.00;;;;;;;;;;12273695;19;20382;-64
2022/08/24 20:36:23;;;;;;;0.00;0.00;;;;;;;;;;12280642;19;20003;-70
2022/08/24 20:40:24;;;;;;;0.00;0.00;;;;;;;;;;12277864;19;19998;-68
2022/08/24 20:44:25;;;;;;;0.00;0.00;;;;;;;;;;12282607;19;20002;-71
2022/08/24 20:48:28;;;;;;;0.00;0.00;;;;;;;;;;12284712;19;20042;-65
2022/08/24 20:52:28;;;;;;;0.00;0.00;;;;;;;;;;12275985;19;20010;-65
2022/08/24 20:56:33;;;;;;;0.00;0.00;;;;;;;;;;12276469;19;20007;-63
2022/08/24 21:00:33;;;;;;;0.00;0.00;;;;;;;;;;12277390;19;20017;-61
2022/08/24 21:04:33;;;;;;;0.00;0.00;;;;;;;;;;12274846;19;20096;-70
2022/08/24 21:08:34;;;;;;;0.00;0.00;;;;;;;;;;12276206;19;19999;-65
2022/08/24 21:12:35;;;;;;;0.00;0.00;;;;;;;;;;12275992;19;20390;-68
2022/08/24 21:16:38;;;;;;;0.00;0.00;;;;;;;;;;12279069;19;20011;-67
2022/08/24 21:20:41;;;;;;;0.00;0.00;;;;;;;;;;12274811;19;20288;-70
2022/08/24 21:24:41;;;;;;;0.00;0.00;;;;;;;;;;12281709;19;20017;-63
2022/08/24 21:28:42;;;;;;;0.00;0.00;;;;;;;;;;12282123;19;20003;-62
2022/08/24 21:37:01;;;;;;;0.00;0.00;;;;;;;;;;12275140;19;20102;-68
2022/08/24 21:41:02;;;;;;;0.00;0.00;;;;;;;;;;12271801;19;19998;-67
2022/08/24 21:45:03;;;;;;;0.00;0.00;;;;;;;;;;12271715;19;20405;-67
2022/08/24 21:49:04;;;;;;;0.00;0.00;;;;;;;;;;12278458;19;20465;-64
2022/08/24 21:53:04;;;;;;;0.00;0.00;;;;;;;;;;12277595;19;19995;-69
2022/08/24 21:57:05;;;;;;;0.00;0.00;;;;;;;;;;12275241;19;20079;-64
2022/08/24 22:01:05;;;;;;;0.00;0.00;;;;;;;;;;12275420;19;20469;-64
2022/08/24 22:05:05;;;;;;;0.00;0.00;;;;;;;;;;12270784;19;20375;-62
2022/08/24 22:09:06;;;;;;;0.00;0.00;;;;;;;;;;12272527;19;19986;-69
2022/08/24 22:13:06;;;;;;;0.00;0.00;;;;;;;;;;12271346;19;20311;-69
2022/08/24 22:17:07;;;;;;;0.00;0.00;;;;;;;;;;12271329;19;19979;-65
2022/08/24 22:21:11;;;;;;;0.00;0.00;;;;;;;;;;12276618;19;20011;-69
2022/08/24 22:25:13;;;;;;;0.00;0.00;;;;;;;;;;12269982;19;20534;-69
2022/08/24 22:29:13;;;;;;;0.00;0.00;;;;;;;;;;12277747;19;20047;-72
2022/08/24 22:33:14;;;;;;;0.00;0.00;;;;;;;;;;12269224;19;20010;-70
2022/08/24 22:37:15;;;;;;;0.00;0.00;;;;;;;;;;12271406;19;20620;-68
2022/08/24 22:41:16;;;;;;;0.00;0.00;;;;;;;;;;12274138;19;20032;-65
2022/08/24 22:45:16;;;;;;;0.00;0.00;;;;;;;;;;12268697;19;19986;-65
2022/08/24 22:49:18;;;;;;;0.00;0.00;;;;;;;;;;12272193;19;20111;-69
2022/08/24 22:53:18;;;;;;;0.00;0.00;;;;;;;;;;12265917;19;20580;-63
2022/08/24 22:57:18;;;;;;;0.00;0.00;;;;;;;;;;12279389;19;20099;-66
2022/08/24 23:01:23;;;;;;;0.00;0.00;;;;;;;;;;12277851;19;20047;-69
2022/08/24 23:05:24;;;;;;;0.00;0.00;;;;;;;;;;12282118;19;20003;-68
2022/08/24 23:09:24;;;;;;;0.00;0.00;;;;;;;;;;12278691;19;19982;-68
2022/08/24 23:13:24;;;;;;;0.00;0.00;;;;;;;;;;12280158;19;20703;-68
2022/08/24 23:17:25;;;;;;;0.00;0.00;;;;;;;;;;12278203;19;20693;-67
2022/08/24 23:21:25;;;;;;;0.00;0.00;;;;;;;;;;12273496;19;20023;-67
2022/08/24 23:25:26;;;;;;;0.00;0.00;;;;;;;;;;12278449;19;20010;-67
2022/08/24 23:29:26;;;;;;;0.00;0.00;;;;;;;;;;12277487;19;19986;-67
2022/08/24 23:33:27;;;;;;;0.00;0.00;;;;;;;;;;12283360;19;19993;-67
2022/08/24 23:37:27;;;;;;;0.00;0.00;;;;;;;;;;12277028;19;19991;-67
2022/08/24 23:41:33;;;;;;;0.00;0.00;;;;;;;;;;12277234;19;20046;-68
2022/08/24 23:45:36;;;;;;;0.00;0.00;;;;;;;;;;12276831;19;20007;-67
2022/08/24 23:49:38;;;;;;;0.00;0.00;;;;;;;;;;12279763;19;20015;-67
2022/08/24 23:53:45;;;;;;;0.00;0.00;;;;;;;;;;12273704;19;19994;-67
2022/08/24 23:57:45;;;;;;;0.00;0.00;;;;;;;;;;12279746;19;19987;-68
